createdAt,value
2022-11-06T00:00:21.555Z,101057.44
2022-11-06T00:02:48.860Z,101063.50
2022-11-06T00:05:33.863Z,101061.75
2022-11-06T00:08:00.259Z,101054.84
2022-11-06T00:10:26.761Z,101049.66
2022-11-06T00:12:53.113Z,101053.97
2022-11-06T00:15:19.401Z,101049.66
2022-11-06T00:17:49.753Z,101040.16
2022-11-06T00:20:17.014Z,101046.22
2022-11-06T00:22:43.441Z,101049.63
2022-11-06T00:25:10.040Z,101049.63
2022-11-06T00:27:37.864Z,101057.44
2022-11-06T00:30:06.193Z,101048.81
2022-11-06T00:32:32.757Z,101040.13
2022-11-06T00:34:59.029Z,101034.06
2022-11-06T00:37:25.415Z,101037.53
2022-11-06T00:39:51.706Z,101040.16
2022-11-06T00:42:18.019Z,101034.94
2022-11-06T00:44:44.297Z,101028.91
2022-11-06T00:47:11.780Z,101031.47
2022-11-06T00:49:38.867Z,101028.00
2022-11-06T00:52:05.181Z,101026.28
2022-11-06T00:54:31.507Z,101030.59
2022-11-06T00:56:57.845Z,101028.00
2022-11-06T00:59:24.121Z,101026.28
2022-11-06T01:01:50.584Z,101038.38
2022-11-06T01:04:22.879Z,101034.91
2022-11-06T01:06:52.922Z,101031.44
2022-11-06T01:09:22.009Z,101028.81
2022-11-06T01:14:39.897Z,101013.28
2022-11-06T01:17:06.210Z,101021.06
2022-11-06T01:19:32.497Z,101019.31
2022-11-06T01:21:58.808Z,101015.00
2022-11-06T01:24:27.423Z,101013.25
2022-11-06T01:27:24.283Z,101013.28
2022-11-06T01:29:40.901Z,101015.03
2022-11-06T01:32:07.454Z,101017.63
2022-11-06T01:34:34.145Z,101013.31
2022-11-06T01:37:00.454Z,101001.22
2022-11-06T01:39:26.850Z,101007.28
2022-11-06T01:41:53.579Z,101008.13
2022-11-06T01:44:35.247Z,100996.00
2022-11-06T01:47:18.042Z,101002.94
2022-11-06T01:49:44.985Z,100997.75
2022-11-06T01:52:13.596Z,100987.38
2022-11-06T01:54:41.549Z,100987.34
2022-11-06T01:57:10.401Z,100967.47
2022-11-06T01:59:44.932Z,100972.66
2022-11-06T02:02:12.464Z,100971.84
2022-11-06T02:04:42.895Z,100969.22
2022-11-06T02:07:10.455Z,100964.00
2022-11-06T02:09:36.802Z,100965.75
2022-11-06T02:12:12.191Z,100964.03
2022-11-06T02:14:48.543Z,100955.38
2022-11-06T02:17:55.119Z,100957.13
2022-11-06T02:20:44.169Z,100958.81
2022-11-06T02:23:22.180Z,100961.41
2022-11-06T02:26:01.485Z,100956.22
2022-11-06T02:28:45.168Z,100951.91
2022-11-06T02:31:15.990Z,100945.84
2022-11-06T02:33:49.119Z,100938.91
2022-11-06T02:36:21.733Z,100941.50
2022-11-06T02:38:54.969Z,100938.91
2022-11-06T02:41:28.141Z,100936.31
2022-11-06T02:43:58.145Z,100931.09
2022-11-06T02:46:47.601Z,100935.44
2022-11-06T02:49:23.559Z,100921.56
2022-11-06T02:51:56.681Z,100920.72
2022-11-06T02:54:26.428Z,100918.97
2022-11-06T02:56:57.499Z,100923.31
2022-11-06T02:59:33.269Z,100915.50
2022-11-06T03:02:05.153Z,100919.00
2022-11-06T03:04:55.234Z,100916.38
2022-11-06T03:07:36.254Z,100913.78
2022-11-06T03:10:03.385Z,100910.28
2022-11-06T03:12:32.930Z,100908.53
2022-11-06T03:15:20.653Z,100893.81
2022-11-06T03:18:09.229Z,100903.31
2022-11-06T03:20:41.817Z,100890.34
2022-11-06T03:23:22.578Z,100884.28
2022-11-06T03:25:59.571Z,100879.09
2022-11-06T03:28:39.882Z,100877.41
2022-11-06T03:31:11.788Z,100884.28
2022-11-06T03:33:50.615Z,100883.41
2022-11-06T03:36:22.395Z,100881.69
2022-11-06T03:39:05.228Z,100881.72
2022-11-06T03:41:45.769Z,100893.81
2022-11-06T03:44:16.811Z,100894.69
2022-11-06T03:46:48.206Z,100878.22
2022-11-06T03:49:22.340Z,100884.28
2022-11-06T03:52:00.133Z,100889.50
2022-11-06T03:54:34.316Z,100876.53
2022-11-06T03:57:09.727Z,100875.66
2022-11-06T03:59:42.991Z,100868.72
2022-11-06T04:02:13.025Z,100870.47
2022-11-06T04:04:59.575Z,100867.00
2022-11-06T04:07:34.681Z,100864.41
2022-11-06T04:10:22.891Z,100860.09
2022-11-06T04:13:09.806Z,100855.72
2022-11-06T04:15:51.964Z,100861.78
2022-11-06T04:18:21.936Z,100865.28
2022-11-06T04:21:21.945Z,100867.84
2022-11-06T04:24:24.564Z,100875.59
2022-11-06T04:27:38.171Z,100869.53
2022-11-06T04:30:12.396Z,100872.97
2022-11-06T04:32:47.463Z,100872.13
2022-11-06T04:35:13.767Z,100873.88
2022-11-06T04:37:49.812Z,100869.50
2022-11-06T04:40:25.433Z,100867.88
2022-11-06T04:43:01.549Z,100876.53
2022-11-06T04:45:49.179Z,100872.19
2022-11-06T04:48:17.691Z,100868.75
2022-11-06T04:50:50.931Z,100865.34
2022-11-06T04:53:19.488Z,100868.81
2022-11-06T04:55:52.398Z,100867.97
2022-11-06T04:58:18.749Z,100867.97
2022-11-06T05:00:48.250Z,100874.03
2022-11-06T05:03:16.089Z,100862.78
2022-11-06T05:05:42.893Z,100861.94
2022-11-06T05:08:15.098Z,100873.13
2022-11-06T05:10:43.050Z,100872.28
2022-11-06T05:13:09.780Z,100869.69
2022-11-06T05:15:36.519Z,100873.13
2022-11-06T05:18:03.463Z,100864.47
2022-11-06T05:20:30.236Z,100858.41
2022-11-06T05:23:00.420Z,100862.72
2022-11-06T05:25:35.804Z,100849.75
2022-11-06T05:28:05.665Z,100855.81
2022-11-06T05:30:31.957Z,100860.13
2022-11-06T05:32:58.248Z,100855.81
2022-11-06T05:35:24.804Z,100849.78
2022-11-06T05:37:51.158Z,100854.97
2022-11-06T05:40:17.667Z,100849.78
2022-11-06T05:42:44.308Z,100854.97
2022-11-06T05:45:11.408Z,100849.78
2022-11-06T05:47:41.174Z,100852.38
2022-11-06T05:50:09.125Z,100848.88
2022-11-06T05:52:36.090Z,100850.63
2022-11-06T05:55:02.471Z,100851.50
2022-11-06T05:57:28.737Z,100849.78
2022-11-06T05:59:55.076Z,100858.44
2022-11-06T06:02:21.525Z,100855.78
2022-11-06T06:04:47.925Z,100852.34
2022-11-06T06:07:14.241Z,100854.91
2022-11-06T06:09:40.619Z,100853.19
2022-11-06T06:12:08.717Z,100847.16
2022-11-06T06:14:34.997Z,100855.78
2022-11-06T06:17:01.644Z,100854.94
2022-11-06T06:19:27.934Z,100857.50
2022-11-06T06:21:54.296Z,100871.34
2022-11-06T06:24:20.622Z,100863.53
2022-11-06T06:26:46.956Z,100866.09
2022-11-06T06:29:13.299Z,100873.03
2022-11-06T06:31:39.627Z,100866.94
2022-11-06T06:34:06.017Z,100880.81
2022-11-06T06:36:32.330Z,100872.16
2022-11-06T06:38:58.617Z,100872.16
2022-11-06T06:41:25.252Z,100865.19
2022-11-06T06:43:51.525Z,100861.75
2022-11-06T06:46:18.006Z,100864.38
2022-11-06T06:48:44.610Z,100866.03
2022-11-06T06:51:11.028Z,100868.66
2022-11-06T06:53:37.636Z,100857.38
2022-11-06T06:56:04.179Z,100861.72
2022-11-06T06:58:31.269Z,100866.88
2022-11-06T07:01:05.658Z,100859.97
2022-11-06T07:03:32.561Z,100859.94
2022-11-06T07:05:58.895Z,100857.34
2022-11-06T07:08:26.765Z,100857.31
2022-11-06T07:10:53.204Z,100855.53
2022-11-06T07:13:19.585Z,100856.38
2022-11-06T07:15:45.936Z,100853.72
2022-11-06T07:18:12.555Z,100859.78
2022-11-06T07:20:39.651Z,100860.59
2022-11-06T07:23:07.640Z,100863.19
2022-11-06T07:25:34.723Z,100852.78
2022-11-06T07:28:02.960Z,100854.44
2022-11-06T07:30:30.215Z,100852.75
2022-11-06T07:32:56.612Z,100863.94
2022-11-06T07:35:23.072Z,100860.47
2022-11-06T07:37:49.368Z,100857.84
2022-11-06T07:40:15.700Z,100863.00
2022-11-06T07:42:43.706Z,100869.97
2022-11-06T07:45:10.525Z,100869.06
2022-11-06T07:47:36.845Z,100864.75
2022-11-06T07:50:03.586Z,100862.13
2022-11-06T07:52:30.011Z,100877.72
2022-11-06T07:54:56.368Z,100871.69
2022-11-06T07:57:22.680Z,100869.06
2022-11-06T07:59:49.003Z,100866.41
2022-11-06T08:02:15.624Z,100858.69
2022-11-06T08:04:42.039Z,100863.00
2022-11-06T08:07:08.358Z,100873.31
2022-11-06T08:09:34.798Z,100855.97
2022-11-06T08:12:01.748Z,100855.97
2022-11-06T08:14:28.157Z,100855.88
2022-11-06T08:16:55.469Z,100854.06
2022-11-06T08:19:21.756Z,100845.31
2022-11-06T08:21:48.051Z,100855.78
2022-11-06T08:24:19.044Z,100842.75
2022-11-06T08:26:47.960Z,100847.13
2022-11-06T08:29:14.342Z,100854.00
2022-11-06T08:31:40.702Z,100848.78
2022-11-06T08:34:09.171Z,100839.31
2022-11-06T08:36:46.830Z,100840.13
2022-11-06T08:39:16.013Z,100841.00
2022-11-06T08:41:42.538Z,100844.41
2022-11-06T08:44:08.840Z,100847.88
2022-11-06T08:46:35.216Z,100850.50
2022-11-06T08:49:01.573Z,100838.31
2022-11-06T08:51:27.937Z,100843.50
2022-11-06T08:53:54.241Z,100830.44
2022-11-06T08:56:20.590Z,100832.91
2022-11-06T08:58:51.459Z,100822.34
2022-11-06T09:01:20.966Z,100818.63
2022-11-06T09:03:47.447Z,100817.53
2022-11-06T09:06:13.755Z,100812.38
2022-11-06T09:08:40.095Z,100811.59
2022-11-06T09:11:10.736Z,100806.22
2022-11-06T09:13:37.301Z,100793.91
2022-11-06T09:16:03.859Z,100806.13
2022-11-06T09:18:30.157Z,100805.09
2022-11-06T09:20:57.297Z,100814.66
2022-11-06T09:23:24.521Z,100813.13
2022-11-06T09:25:50.833Z,100807.81
2022-11-06T09:28:17.316Z,100811.25
2022-11-06T09:30:43.633Z,100810.47
2022-11-06T09:33:13.531Z,100816.34
2022-11-06T09:35:40.900Z,100818.81
2022-11-06T09:38:11.212Z,100816.06
2022-11-06T09:40:46.741Z,100820.31
2022-11-06T09:43:50.210Z,100820.44
2022-11-06T09:46:28.300Z,100821.97
2022-11-06T09:49:03.224Z,100822.94
2022-11-06T09:51:36.659Z,100816.97
2022-11-06T09:54:13.046Z,100820.44
2022-11-06T09:56:41.875Z,100825.63
2022-11-06T09:59:14.490Z,100819.53
2022-11-06T10:01:48.689Z,100817.88
2022-11-06T10:04:35.949Z,100810.03
2022-11-06T10:07:02.283Z,100814.22
2022-11-06T10:09:29.539Z,100815.06
2022-11-06T10:12:18.609Z,100806.34
2022-11-06T10:14:45.000Z,100812.34
2022-11-06T10:17:37.656Z,100812.25
2022-11-06T10:20:27.502Z,100803.28
2022-11-06T10:23:17.469Z,100804.16
2022-11-06T10:26:08.917Z,100800.81
2022-11-06T10:28:41.244Z,100800.72
2022-11-06T10:31:26.403Z,100801.56
2022-11-06T10:33:59.964Z,100804.97
2022-11-06T10:36:34.965Z,100792.75
2022-11-06T10:39:04.468Z,100789.22
2022-11-06T10:41:35.743Z,100783.91
2022-11-06T10:44:08.012Z,100783.59
2022-11-06T10:46:46.418Z,100783.78
2022-11-06T10:49:30.099Z,100784.84
2022-11-06T10:52:22.205Z,100778.91
2022-11-06T10:54:54.618Z,100774.47
2022-11-06T10:57:33.604Z,100776.81
2022-11-06T11:00:00.014Z,100780.25
2022-11-06T11:02:31.981Z,100770.69
2022-11-06T11:04:58.731Z,100778.41
2022-11-06T11:07:30.566Z,100773.22
2022-11-06T11:09:56.877Z,100769.47
2022-11-06T11:12:27.634Z,100762.28
2022-11-06T11:15:17.541Z,100743.88
2022-11-06T11:18:09.479Z,100743.69
2022-11-06T11:20:40.725Z,100734.03
2022-11-06T11:23:10.040Z,100738.28
2022-11-06T11:25:36.509Z,100721.34
2022-11-06T11:28:05.111Z,100724.69
2022-11-06T11:30:31.724Z,100715.97
2022-11-06T11:32:58.529Z,100716.25
2022-11-06T11:35:30.680Z,100710.13
2022-11-06T11:38:11.099Z,100717.94
2022-11-06T11:40:39.012Z,100717.19
2022-11-06T11:43:24.780Z,100710.25
2022-11-06T11:46:09.189Z,100698.69
2022-11-06T11:48:50.324Z,100695.28
2022-11-06T11:51:34.505Z,100690.75
2022-11-06T11:54:12.950Z,100685.31
2022-11-06T11:57:04.709Z,100692.84
2022-11-06T11:59:42.761Z,100682.38
2022-11-06T12:02:29.252Z,100683.00
2022-11-06T12:05:00.341Z,100690.59
2022-11-06T12:07:33.391Z,100681.59
2022-11-06T12:10:01.925Z,100687.28
2022-11-06T12:12:36.496Z,100687.06
2022-11-06T12:15:14.521Z,100681.78
2022-11-06T12:17:43.250Z,100681.78
2022-11-06T12:20:20.810Z,100681.22
2022-11-06T12:22:49.367Z,100671.69
2022-11-06T12:25:42.003Z,100667.31
2022-11-06T12:28:17.198Z,100669.06
2022-11-06T12:30:49.196Z,100659.38
2022-11-06T12:33:45.516Z,100664.38
2022-11-06T12:36:17.272Z,100660.06
2022-11-06T12:38:57.278Z,100654.13
2022-11-06T12:41:35.949Z,100642.63
2022-11-06T12:44:02.533Z,100652.03
2022-11-06T12:46:38.084Z,100649.63
2022-11-06T12:49:25.008Z,100641.22
2022-11-06T12:52:07.369Z,100634.09
2022-11-06T12:55:07.653Z,100633.13
2022-11-06T12:58:09.249Z,100627.50
2022-11-06T13:00:53.607Z,100620.47
2022-11-06T13:03:38.051Z,100617.72
2022-11-06T13:06:23.895Z,100615.38
2022-11-06T13:09:23.708Z,100612.66
2022-11-06T13:12:12.541Z,100616.75
2022-11-06T13:14:55.768Z,100609.63
2022-11-06T13:17:30.452Z,100609.56
2022-11-06T13:20:29.365Z,100604.78
2022-11-06T13:23:09.256Z,100600.72
2022-11-06T13:25:55.439Z,100599.75
2022-11-06T13:28:31.454Z,100600.50
2022-11-06T13:30:59.092Z,100590.03
2022-11-06T13:33:30.278Z,100594.75
2022-11-06T13:35:58.643Z,100589.06
2022-11-06T13:38:37.184Z,100594.59
2022-11-06T13:41:12.931Z,100586.16
2022-11-06T13:43:44.647Z,100580.84
2022-11-06T13:46:24.839Z,100577.44
2022-11-06T13:49:03.237Z,100571.25
2022-11-06T13:51:39.049Z,100568.50
2022-11-06T13:54:36.188Z,100566.03
2022-11-06T13:57:20.991Z,100563.59
2022-11-06T14:00:11.601Z,100555.34
2022-11-06T14:02:53.122Z,100558.94
2022-11-06T14:05:46.025Z,100553.81
2022-11-06T14:08:38.600Z,100545.38
2022-11-06T14:11:11.015Z,100542.84
2022-11-06T14:13:38.258Z,100547.91
2022-11-06T14:16:08.148Z,100547.22
2022-11-06T14:18:35.202Z,100544.88
2022-11-06T14:21:28.016Z,100547.66
2022-11-06T14:24:07.662Z,100538.28
2022-11-06T14:26:45.688Z,100533.28
2022-11-06T14:29:27.409Z,100536.06
2022-11-06T14:32:40.953Z,100530.97
2022-11-06T14:35:29.173Z,100534.50
2022-11-06T14:38:29.669Z,100537.41
2022-11-06T14:40:57.093Z,100530.44
2022-11-06T14:43:28.458Z,100522.53
2022-11-06T14:46:04.563Z,100518.47
2022-11-06T14:48:35.263Z,100501.09
2022-11-06T14:51:05.436Z,100507.19
2022-11-06T14:53:36.393Z,100500.34
2022-11-06T14:56:07.377Z,100512.53
2022-11-06T14:58:40.367Z,100517.91
2022-11-06T15:01:09.576Z,100504.81
2022-11-06T15:03:55.472Z,100508.19
2022-11-06T15:06:38.460Z,100511.78
2022-11-06T15:09:35.277Z,100516.09
2022-11-06T15:12:04.606Z,100508.34
2022-11-06T15:14:30.866Z,100506.72
2022-11-06T15:17:05.183Z,100506.13
2022-11-06T15:19:38.217Z,100502.69
2022-11-06T15:22:39.985Z,100494.84
2022-11-06T15:25:20.376Z,100499.03
2022-11-06T15:27:55.011Z,100506.97
2022-11-06T15:30:21.501Z,100509.75
2022-11-06T15:32:51.730Z,100512.31
2022-11-06T15:35:33.294Z,100504.50
2022-11-06T15:38:13.355Z,100501.97
2022-11-06T15:40:40.921Z,100500.34
2022-11-06T15:43:18.315Z,100490.75
2022-11-06T15:45:44.724Z,100497.81
2022-11-06T15:48:23.571Z,100502.94
2022-11-06T15:50:49.926Z,100503.16
2022-11-06T15:53:27.335Z,100498.00
2022-11-06T15:56:01.646Z,100492.78
2022-11-06T15:58:32.347Z,100501.47
2022-11-06T16:01:04.295Z,100494.41
2022-11-06T16:03:33.311Z,100501.50
2022-11-06T16:06:03.026Z,100500.69
2022-11-06T16:08:32.033Z,100504.13
2022-11-06T16:10:59.728Z,100494.69
2022-11-06T16:13:27.263Z,100500.91
2022-11-06T16:16:03.850Z,100493.97
2022-11-06T16:18:39.377Z,100492.41
2022-11-06T16:21:16.349Z,100494.22
2022-11-06T16:23:46.601Z,100488.06
2022-11-06T16:26:18.899Z,100489.81
2022-11-06T16:28:48.966Z,100486.34
2022-11-06T16:31:22.046Z,100489.81
2022-11-06T16:34:06.069Z,100478.59
2022-11-06T16:36:49.875Z,100480.34
2022-11-06T16:39:40.297Z,100489.88
2022-11-06T16:42:17.313Z,100487.25
2022-11-06T16:44:46.004Z,100479.44
2022-11-06T16:47:22.734Z,100472.69
2022-11-06T16:49:54.765Z,100479.50
2022-11-06T16:52:31.939Z,100480.69
2022-11-06T16:55:17.383Z,100467.78
2022-11-06T16:57:52.411Z,100475.47
2022-11-06T17:00:21.380Z,100471.13
2022-11-06T17:02:54.975Z,100471.31
2022-11-06T17:05:23.797Z,100470.50
2022-11-06T17:08:13.719Z,100480.00
2022-11-06T17:10:42.004Z,100480.00
2022-11-06T17:13:17.878Z,100474.13
2022-11-06T17:15:47.653Z,100462.81
2022-11-06T17:18:19.913Z,100466.16
2022-11-06T17:20:50.882Z,100466.19
2022-11-06T17:23:17.598Z,100464.53
2022-11-06T17:25:45.293Z,100461.06
2022-11-06T17:28:11.668Z,100454.16
2022-11-06T17:30:38.542Z,100445.50
2022-11-06T17:33:05.113Z,100456.81
2022-11-06T17:35:31.422Z,100449.91
2022-11-06T17:37:59.112Z,100443.81
2022-11-06T17:40:27.382Z,100444.66
2022-11-06T17:42:53.698Z,100437.69
2022-11-06T17:45:20.068Z,100439.44
2022-11-06T17:47:46.399Z,100431.59
2022-11-06T17:50:12.700Z,100442.13
2022-11-06T17:52:38.991Z,100420.50
2022-11-06T17:55:06.066Z,100420.50
2022-11-06T17:57:32.578Z,100423.91
2022-11-06T17:59:58.985Z,100415.28
2022-11-06T18:02:41.224Z,100408.34
2022-11-06T18:05:11.590Z,100399.63
2022-11-06T18:07:37.930Z,100393.44
2022-11-06T18:10:04.582Z,100405.63
2022-11-06T18:12:30.899Z,100393.69
2022-11-06T18:14:57.210Z,100394.59
2022-11-06T18:17:23.625Z,100395.34
2022-11-06T18:19:49.971Z,100388.59
2022-11-06T18:22:16.313Z,100386.03
2022-11-06T18:24:42.625Z,100373.97
2022-11-06T18:27:08.959Z,100382.63
2022-11-06T18:29:35.280Z,100378.31
2022-11-06T18:32:01.648Z,100368.72
2022-11-06T18:34:27.950Z,100364.34
2022-11-06T18:36:54.365Z,100359.13
2022-11-06T18:39:20.761Z,100355.69
2022-11-06T18:41:47.115Z,100353.16
2022-11-06T18:44:15.560Z,100358.31
2022-11-06T18:46:41.898Z,100343.59
2022-11-06T18:49:10.928Z,100346.16
2022-11-06T18:51:37.358Z,100341.97
2022-11-06T18:54:06.287Z,100345.34
2022-11-06T18:56:33.567Z,100339.16
2022-11-06T18:59:00.038Z,100341.66
2022-11-06T19:01:26.716Z,100334.75
2022-11-06T19:03:55.712Z,100339.19
2022-11-06T19:06:22.112Z,100322.78
2022-11-06T19:08:48.831Z,100320.09
2022-11-06T19:11:16.993Z,100308.78
2022-11-06T19:13:47.847Z,100316.66
2022-11-06T19:16:16.143Z,100317.56
2022-11-06T19:18:42.597Z,100310.63
2022-11-06T19:21:11.076Z,100317.47
2022-11-06T19:23:42.288Z,100310.63
2022-11-06T19:26:29.990Z,100298.56
2022-11-06T19:28:57.932Z,100295.09
2022-11-06T19:31:28.611Z,100295.97
2022-11-06T19:33:58.955Z,100297.81
2022-11-06T19:36:25.813Z,100306.50
2022-11-06T19:38:52.495Z,100296.91
2022-11-06T19:41:19.247Z,100293.44
2022-11-06T19:43:45.612Z,100288.94
2022-11-06T19:46:11.959Z,100286.38
2022-11-06T19:48:38.310Z,100280.44
2022-11-06T19:51:10.785Z,100284.84
2022-11-06T19:53:38.374Z,100283.97
2022-11-06T19:56:10.094Z,100282.25
2022-11-06T19:58:36.559Z,100281.41
2022-11-06T20:01:10.235Z,100277.19
2022-11-06T20:03:37.006Z,100290.19
2022-11-06T20:06:07.853Z,100281.53
2022-11-06T20:08:35.713Z,100283.25
2022-11-06T20:11:04.306Z,100283.38
2022-11-06T20:13:36.043Z,100278.16
2022-11-06T20:16:04.083Z,100275.56
2022-11-06T20:18:31.027Z,100274.78
2022-11-06T20:21:01.653Z,100279.06
2022-11-06T20:23:29.981Z,100267.03
2022-11-06T20:25:56.502Z,100266.97
2022-11-06T20:28:23.773Z,100267.84
2022-11-06T20:30:50.821Z,100274.59
2022-11-06T20:33:17.930Z,100267.72
2022-11-06T20:35:45.091Z,100260.75
2022-11-06T20:38:12.214Z,100269.56
2022-11-06T20:40:38.545Z,100262.56
2022-11-06T20:43:04.852Z,100259.13
2022-11-06T20:45:36.889Z,100256.56
2022-11-06T20:48:07.852Z,100255.66
2022-11-06T20:50:34.194Z,100256.44
2022-11-06T20:53:00.782Z,100257.25
2022-11-06T20:55:27.382Z,100258.06
2022-11-06T20:57:53.669Z,100266.84
2022-11-06T21:00:20.128Z,100260.75
2022-11-06T21:02:46.644Z,100265.16
2022-11-06T21:05:14.704Z,100255.53
2022-11-06T21:07:41.532Z,100260.78
2022-11-06T21:10:09.830Z,100263.53
2022-11-06T21:12:36.126Z,100266.06
2022-11-06T21:15:02.864Z,100261.78
2022-11-06T21:17:29.153Z,100272.38
2022-11-06T21:19:55.466Z,100277.81
2022-11-06T21:22:21.769Z,100271.84
2022-11-06T21:24:48.171Z,100275.34
2022-11-06T21:27:14.484Z,100277.28
2022-11-06T21:29:40.846Z,100273.81
2022-11-06T21:32:07.109Z,100279.16
2022-11-06T21:34:33.368Z,100278.47
2022-11-06T21:37:02.679Z,100267.31
2022-11-06T21:39:33.173Z,100264.91
2022-11-06T21:42:02.547Z,100273.50
2022-11-06T21:44:28.846Z,100263.28
2022-11-06T21:46:55.189Z,100259.00
2022-11-06T21:49:21.502Z,100251.19
2022-11-06T21:51:47.793Z,100249.50
2022-11-06T21:54:32.815Z,100239.09
2022-11-06T21:56:59.181Z,100233.91
2022-11-06T21:59:27.814Z,100235.66
2022-11-06T22:01:54.322Z,100233.19
2022-11-06T22:04:20.908Z,100236.72
2022-11-06T22:06:47.370Z,100234.13
2022-11-06T22:09:14.280Z,100235.94
2022-11-06T22:11:43.193Z,100234.28
2022-11-06T22:14:15.407Z,100240.25
2022-11-06T22:16:44.006Z,100238.53
2022-11-06T22:19:11.547Z,100241.97
2022-11-06T22:21:40.009Z,100237.06
2022-11-06T22:24:07.461Z,100244.00
2022-11-06T22:26:35.283Z,100224.97
2022-11-06T22:29:07.426Z,100219.75
2022-11-06T22:31:33.858Z,100224.06
2022-11-06T22:34:00.211Z,100222.34
2022-11-06T22:36:26.851Z,100222.34
2022-11-06T22:38:53.261Z,100218.97
2022-11-06T22:41:23.339Z,100207.63
2022-11-06T22:43:50.201Z,100216.22
2022-11-06T22:46:19.186Z,100207.53
2022-11-06T22:48:45.781Z,100202.34
2022-11-06T22:51:14.965Z,100197.09
2022-11-06T22:53:42.139Z,100193.69
2022-11-06T22:56:08.761Z,100198.03
2022-11-06T22:58:35.178Z,100197.88
2022-11-06T23:01:01.579Z,100197.00
2022-11-06T23:03:29.429Z,100196.09
2022-11-06T23:05:58.031Z,100198.66
2022-11-06T23:08:26.180Z,100184.78
2022-11-06T23:10:53.345Z,100184.81
2022-11-06T23:13:19.619Z,100186.50
2022-11-06T23:15:45.986Z,100184.72
2022-11-06T23:18:12.287Z,100187.31
2022-11-06T23:20:38.689Z,100186.38
2022-11-06T23:23:05.578Z,100191.63
2022-11-06T23:25:32.289Z,100187.16
2022-11-06T23:27:59.922Z,100193.19
2022-11-06T23:30:26.807Z,100191.41
2022-11-06T23:32:53.161Z,100184.41
2022-11-06T23:35:22.335Z,100187.13
2022-11-06T23:37:49.258Z,100181.06
2022-11-06T23:40:15.663Z,100183.53
2022-11-06T23:42:43.191Z,100185.28
2022-11-06T23:45:29.693Z,100180.00
2022-11-06T23:47:56.101Z,100183.59
2022-11-06T23:50:22.406Z,100181.00
2022-11-06T23:52:48.786Z,100182.63
2022-11-06T23:55:15.114Z,100196.53
2022-11-06T23:57:41.519Z,100189.53
